Terminal Aerodrome Forecast
Issued by NWS Pendleton, OR

Home | Current Version | Previous Version | Text Only | Print | Product List | Glossary On
Versions: 1 2 3 4 5 6 7 8 9 10 11 12 13
000
FTUS46 KPDT 291121
TAFPDT
TAF
KPDT 291121Z 2912/3012 14007KT P6SM SKC
     FM291800 34007KT P6SM SKC
     FM300100 04006KT P6SM SKC
     FM300600 14007KT P6SM SKC=

USA.gov is the U.S. government's official web portal to all federal, state and local government web resources and services.